createdAt,value
2023-05-14T00:00:56.851Z,100948.38
2023-05-14T00:03:24.540Z,100957.97
2023-05-14T00:05:52.633Z,100954.06
2023-05-14T00:08:21.700Z,100941.72
2023-05-14T00:10:49.733Z,100954.88
2023-05-14T00:13:17.401Z,100952.88
2023-05-14T00:15:45.226Z,100923.19
2023-05-14T00:18:13.458Z,100940.19
2023-05-14T00:20:42.038Z,100923.53
2023-05-14T00:23:09.790Z,100925.38
2023-05-14T00:25:38.890Z,100921.00
2023-05-14T00:28:06.868Z,100930.22
2023-05-14T00:30:34.956Z,100937.53
2023-05-14T00:33:02.718Z,100932.31
2023-05-14T00:35:30.760Z,100930.81
2023-05-14T00:37:58.469Z,100920.94
2023-05-14T00:40:27.845Z,100907.31
2023-05-14T00:42:57.512Z,100915.44
2023-05-14T00:45:25.759Z,100916.00
2023-05-14T00:47:53.789Z,100903.19
2023-05-14T00:50:22.395Z,100902.66
2023-05-14T00:52:50.795Z,100889.28
2023-05-14T00:55:18.666Z,100905.50
2023-05-14T00:57:46.438Z,100914.63
2023-05-14T01:00:16.738Z,100921.53
2023-05-14T01:02:44.524Z,100909.47
2023-05-14T01:05:12.394Z,100893.88
2023-05-14T01:07:46.380Z,100908.28
2023-05-14T01:10:16.929Z,100908.06
2023-05-14T01:12:51.709Z,100896.75
2023-05-14T01:15:23.167Z,100902.22
2023-05-14T01:17:53.567Z,100897.19
2023-05-14T01:20:21.643Z,100899.38
2023-05-14T01:22:51.131Z,100907.63
2023-05-14T01:25:18.949Z,100916.06
2023-05-14T01:27:51.454Z,100901.13
2023-05-14T01:30:21.512Z,100892.31
2023-05-14T01:32:52.709Z,100889.72
2023-05-14T01:35:21.654Z,100905.44
2023-05-14T01:37:51.440Z,100898.91
2023-05-14T01:40:19.486Z,100910.47
2023-05-14T01:42:47.501Z,100894.22
2023-05-14T01:45:15.294Z,100900.56
2023-05-14T01:47:43.102Z,100885.16
2023-05-14T01:50:12.058Z,100896.75
2023-05-14T01:52:39.807Z,100878.06
2023-05-14T01:55:10.173Z,100897.88
2023-05-14T01:57:37.858Z,100884.16
2023-05-14T02:00:06.761Z,100898.75
2023-05-14T02:02:34.516Z,100877.72
2023-05-14T02:05:02.681Z,100874.25
2023-05-14T02:07:31.332Z,100892.59
2023-05-14T02:09:59.488Z,100876.22
2023-05-14T02:12:28.572Z,100872.34
2023-05-14T02:14:56.311Z,100887.31
2023-05-14T02:17:24.992Z,100865.66
2023-05-14T02:19:52.749Z,100854.63
2023-05-14T02:22:20.478Z,100860.88
2023-05-14T02:24:49.743Z,100864.78
2023-05-14T02:27:17.648Z,100865.63
2023-05-14T02:29:46.809Z,100848.00
2023-05-14T02:32:14.534Z,100867.53
2023-05-14T02:34:42.246Z,100858.91
2023-05-14T02:37:09.929Z,100865.66
2023-05-14T02:39:37.630Z,100851.00
2023-05-14T02:42:06.911Z,100839.69
2023-05-14T02:44:34.570Z,100852.53
2023-05-14T02:47:04.064Z,100864.59
2023-05-14T02:49:31.862Z,100860.97
2023-05-14T02:52:00.908Z,100847.22
2023-05-14T02:54:28.595Z,100842.88
2023-05-14T02:56:56.284Z,100837.66
2023-05-14T02:59:25.668Z,100845.22
2023-05-14T03:01:54.096Z,100842.13
2023-05-14T03:04:23.481Z,100834.81
2023-05-14T03:06:51.295Z,100854.28
2023-05-14T03:09:19.029Z,100831.22
2023-05-14T03:11:47.100Z,100833.00
2023-05-14T03:14:14.926Z,100832.50
2023-05-14T03:16:42.672Z,100837.31
2023-05-14T03:19:10.884Z,100863.19
2023-05-14T03:21:40.019Z,100849.63
2023-05-14T03:24:08.015Z,100853.28
2023-05-14T03:26:35.741Z,100854.19
2023-05-14T03:29:03.968Z,100860.97
2023-05-14T03:31:31.656Z,100849.50
2023-05-14T03:33:59.549Z,100869.81
2023-05-14T03:36:27.241Z,100860.66
2023-05-14T03:38:56.297Z,100868.56
2023-05-14T03:41:24.268Z,100853.97
2023-05-14T03:43:52.370Z,100842.69
2023-05-14T03:46:20.044Z,100845.47
2023-05-14T03:48:47.769Z,100854.78
2023-05-14T03:51:15.692Z,100852.38
2023-05-14T03:53:43.428Z,100843.97
2023-05-14T03:56:12.520Z,100830.25
2023-05-14T03:58:40.728Z,100851.47
2023-05-14T04:01:08.391Z,100870.72
2023-05-14T04:03:36.225Z,100841.22
2023-05-14T04:06:04.091Z,100827.00
2023-05-14T04:08:32.117Z,100835.00
2023-05-14T04:10:59.798Z,100834.88
2023-05-14T04:13:28.901Z,100837.25
2023-05-14T04:15:56.932Z,100840.94
2023-05-14T04:18:24.719Z,100834.56
2023-05-14T04:20:52.420Z,100821.50
2023-05-14T04:23:20.100Z,100851.69
2023-05-14T04:25:47.764Z,100849.56
2023-05-14T04:28:15.650Z,100851.25
2023-05-14T04:30:45.683Z,100840.75
2023-05-14T04:33:13.471Z,100834.31
2023-05-14T04:35:41.548Z,100838.66
2023-05-14T04:38:10.050Z,100824.84
2023-05-14T04:40:37.891Z,100847.91
2023-05-14T04:43:05.569Z,100856.84
2023-05-14T04:45:34.341Z,100839.75
2023-05-14T04:48:03.849Z,100826.19
2023-05-14T04:50:38.604Z,100853.91
2023-05-14T04:53:06.302Z,100840.66
2023-05-14T04:55:34.287Z,100836.25
2023-05-14T04:58:02.309Z,100840.94
2023-05-14T05:00:30.530Z,100843.19
2023-05-14T05:02:58.316Z,100843.72
2023-05-14T05:05:27.484Z,100855.28
2023-05-14T05:07:55.682Z,100851.13
2023-05-14T05:10:23.829Z,100871.72
2023-05-14T05:12:52.037Z,100850.63
2023-05-14T05:15:19.716Z,100844.56
2023-05-14T05:17:47.417Z,100857.31
2023-05-14T05:20:15.461Z,100836.00
2023-05-14T05:22:44.776Z,100843.34
2023-05-14T05:25:13.015Z,100845.91
2023-05-14T05:27:40.712Z,100852.00
2023-05-14T05:30:09.979Z,100848.91
2023-05-14T05:32:37.869Z,100865.56
2023-05-14T05:35:06.569Z,100854.13
2023-05-14T05:37:34.271Z,100862.09
2023-05-14T05:40:04.281Z,100868.59
2023-05-14T05:42:31.982Z,100863.38
2023-05-14T05:44:59.645Z,100878.06
2023-05-14T05:47:27.619Z,100866.84
2023-05-14T05:49:55.650Z,100851.75
2023-05-14T05:52:23.325Z,100844.69
2023-05-14T05:57:34.166Z,100872.47
2023-05-14T06:00:07.979Z,100868.59
2023-05-14T06:02:36.044Z,100860.47
2023-05-14T06:05:03.904Z,100860.09
2023-05-14T06:07:32.047Z,100866.19
2023-05-14T06:09:59.726Z,100880.09
2023-05-14T06:12:27.459Z,100863.72
2023-05-14T06:14:57.856Z,100846.22
2023-05-14T06:17:25.711Z,100869.13
2023-05-14T06:19:54.061Z,100876.72
2023-05-14T06:22:21.988Z,100865.38
2023-05-14T06:24:49.723Z,100868.66
2023-05-14T06:27:17.422Z,100890.97
2023-05-14T06:29:45.317Z,100876.78
2023-05-14T06:32:15.780Z,100872.59
2023-05-14T06:34:43.847Z,100880.59
2023-05-14T06:37:12.330Z,100861.97
2023-05-14T06:39:40.562Z,100868.19
2023-05-14T06:42:08.560Z,100881.28
2023-05-14T06:44:36.266Z,100874.34
2023-05-14T06:47:03.926Z,100881.28
2023-05-14T06:49:33.339Z,100883.50
2023-05-14T06:52:01.022Z,100857.56
2023-05-14T06:54:28.723Z,100879.00
2023-05-14T06:56:56.379Z,100877.81
2023-05-14T06:59:24.045Z,100861.38
2023-05-14T07:01:51.805Z,100848.50
2023-05-14T07:04:19.975Z,100864.53
2023-05-14T07:06:49.359Z,100858.38
2023-05-14T07:09:17.469Z,100859.81
2023-05-14T07:11:45.173Z,100870.22
2023-05-14T07:14:12.990Z,100856.72
2023-05-14T07:16:41.879Z,100861.25
2023-05-14T07:19:09.952Z,100857.19
2023-05-14T07:21:37.704Z,100854.50
2023-05-14T07:24:07.386Z,100863.63
2023-05-14T07:26:35.282Z,100850.47
2023-05-14T07:29:02.950Z,100860.50
2023-05-14T07:31:30.864Z,100880.13
2023-05-14T07:33:58.904Z,100851.19
2023-05-14T07:36:26.674Z,100841.34
2023-05-14T07:38:54.326Z,100864.66
2023-05-14T07:41:23.365Z,100850.88
2023-05-14T07:43:51.024Z,100852.13
2023-05-14T07:46:18.671Z,100859.91
2023-05-14T07:48:46.608Z,100845.28
2023-05-14T07:51:14.252Z,100842.97
2023-05-14T07:53:42.206Z,100856.00
2023-05-14T07:56:09.868Z,100864.97
2023-05-14T07:58:38.942Z,100845.06
2023-05-14T08:01:09.160Z,100860.19
2023-05-14T08:03:37.048Z,100837.53
2023-05-14T08:06:05.139Z,100842.66
2023-05-14T08:08:32.956Z,100848.34
2023-05-14T08:11:00.761Z,100846.72
2023-05-14T08:13:28.546Z,100851.50
2023-05-14T08:15:57.768Z,100831.88
2023-05-14T08:18:25.619Z,100840.19
2023-05-14T08:20:53.279Z,100838.59
2023-05-14T08:23:20.964Z,100843.84
2023-05-14T08:25:48.596Z,100841.13
2023-05-14T08:28:16.317Z,100838.16
2023-05-14T08:30:43.982Z,100835.50
2023-05-14T08:33:13.109Z,100839.91
2023-05-14T08:35:40.805Z,100855.75
2023-05-14T08:38:08.693Z,100836.84
2023-05-14T08:40:36.483Z,100847.31
2023-05-14T08:43:04.179Z,100844.94
2023-05-14T08:45:34.348Z,100851.16
2023-05-14T08:48:02.774Z,100845.91
2023-05-14T08:53:17.123Z,100818.34
2023-05-14T08:55:45.523Z,100836.88
2023-05-14T08:58:13.343Z,100831.34
2023-05-14T09:00:41.143Z,100848.75
2023-05-14T09:03:08.933Z,100821.06
2023-05-14T09:05:36.687Z,100814.59
2023-05-14T09:08:04.460Z,100812.34
2023-05-14T09:10:33.647Z,100821.53
2023-05-14T09:13:01.384Z,100825.84
2023-05-14T09:15:29.360Z,100820.91
2023-05-14T09:17:57.698Z,100821.00
2023-05-14T09:23:01.768Z,100830.88
2023-05-14T09:25:33.539Z,100810.91
2023-05-14T09:28:01.227Z,100804.38
2023-05-14T09:30:28.954Z,100799.75
2023-05-14T09:32:56.649Z,100810.94
2023-05-14T09:35:25.470Z,100808.22
2023-05-14T09:37:54.327Z,100812.53
2023-05-14T09:40:24.409Z,100794.97
2023-05-14T09:42:53.964Z,100811.56
2023-05-14T09:45:21.658Z,100805.28
2023-05-14T09:47:49.480Z,100796.19
2023-05-14T09:50:17.472Z,100801.66
2023-05-14T09:52:45.134Z,100790.81
2023-05-14T09:55:13.049Z,100785.53
2023-05-14T09:57:41.014Z,100810.41
2023-05-14T10:00:12.732Z,100797.06
2023-05-14T10:02:41.845Z,100790.44
2023-05-14T10:05:10.388Z,100800.81
2023-05-14T10:07:41.708Z,100778.25
2023-05-14T10:10:12.862Z,100770.34
2023-05-14T10:12:41.807Z,100789.84
2023-05-14T10:15:16.846Z,100778.34
2023-05-14T10:17:46.142Z,100779.31
2023-05-14T10:20:16.705Z,100764.78
2023-05-14T10:22:44.450Z,100756.34
2023-05-14T10:25:12.400Z,100764.66
2023-05-14T10:27:40.452Z,100760.13
2023-05-14T10:30:13.742Z,100769.81
2023-05-14T10:32:42.055Z,100774.69
2023-05-14T10:35:20.693Z,100745.97
2023-05-14T10:37:48.778Z,100751.19
2023-05-14T10:40:17.909Z,100760.38
2023-05-14T10:42:47.546Z,100737.09
2023-05-14T10:45:17.150Z,100749.66
2023-05-14T10:47:47.456Z,100757.09
2023-05-14T10:50:17.411Z,100740.00
2023-05-14T10:52:46.238Z,100724.81
2023-05-14T10:55:15.787Z,100735.63
2023-05-14T10:57:45.802Z,100736.78
2023-05-14T11:00:14.882Z,100742.88
2023-05-14T11:02:45.732Z,100735.00
2023-05-14T11:05:16.039Z,100729.94
2023-05-14T11:07:45.045Z,100733.19
2023-05-14T11:10:14.249Z,100729.97
2023-05-14T11:12:43.053Z,100729.19
2023-05-14T11:15:12.046Z,100720.06
2023-05-14T11:17:41.271Z,100732.06
2023-05-14T11:20:12.278Z,100732.34
2023-05-14T11:22:41.403Z,100741.25
2023-05-14T11:25:10.214Z,100729.97
2023-05-14T11:27:39.441Z,100733.63
2023-05-14T11:30:14.232Z,100711.06
2023-05-14T11:32:42.187Z,100705.53
2023-05-14T11:35:11.410Z,100706.00
2023-05-14T11:37:39.058Z,100738.97
2023-05-14T11:40:10.883Z,100725.63
2023-05-14T11:42:38.663Z,100720.75
2023-05-14T11:45:07.546Z,100716.84
2023-05-14T11:47:35.205Z,100709.28
2023-05-14T11:50:02.890Z,100692.06
2023-05-14T11:52:31.917Z,100688.91
2023-05-14T11:54:59.557Z,100692.50
2023-05-14T11:57:27.192Z,100697.16
2023-05-14T11:59:57.994Z,100706.00
2023-05-14T12:02:48.528Z,100691.22
2023-05-14T12:05:16.323Z,100701.03
2023-05-14T12:07:47.265Z,100707.34
2023-05-14T12:10:15.252Z,100708.06
2023-05-14T12:12:46.655Z,100692.25
2023-05-14T12:15:16.396Z,100683.59
2023-05-14T12:17:44.453Z,100692.38
2023-05-14T12:20:13.211Z,100686.72
2023-05-14T12:22:43.244Z,100661.91
2023-05-14T12:25:14.547Z,100691.44
2023-05-14T12:27:45.019Z,100693.25
2023-05-14T12:30:21.212Z,100677.47
2023-05-14T12:32:55.294Z,100658.78
2023-05-14T12:35:23.755Z,100686.69
2023-05-14T12:37:51.667Z,100661.47
2023-05-14T12:40:21.043Z,100673.94
2023-05-14T12:42:48.707Z,100681.56
2023-05-14T12:45:16.349Z,100669.28
2023-05-14T12:47:44.046Z,100668.75
2023-05-14T12:50:12.404Z,100639.78
2023-05-14T12:52:40.312Z,100655.56
2023-05-14T12:55:09.068Z,100656.28
2023-05-14T12:57:39.092Z,100642.50
2023-05-14T13:00:08.611Z,100631.00
2023-05-14T13:02:42.070Z,100632.22
2023-05-14T13:05:11.357Z,100641.34
2023-05-14T13:07:39.314Z,100644.09
2023-05-14T13:10:08.211Z,100640.25
2023-05-14T13:12:35.998Z,100634.81
2023-05-14T13:15:05.856Z,100644.81
2023-05-14T13:17:33.756Z,100627.09
2023-05-14T13:20:01.436Z,100634.03
2023-05-14T13:22:29.107Z,100612.34
2023-05-14T13:24:56.790Z,100617.97
2023-05-14T13:27:24.488Z,100634.78
2023-05-14T13:29:52.171Z,100623.94
2023-05-14T13:32:21.409Z,100611.16
2023-05-14T13:34:49.121Z,100616.00
2023-05-14T13:37:16.972Z,100626.41
2023-05-14T13:39:44.707Z,100620.66
2023-05-14T13:42:12.383Z,100625.97
2023-05-14T13:44:40.234Z,100621.09
2023-05-14T13:47:08.216Z,100607.28
2023-05-14T13:49:37.361Z,100616.06
2023-05-14T13:52:06.219Z,100618.91
2023-05-14T13:54:33.939Z,100596.31
2023-05-14T13:57:01.626Z,100610.34
2023-05-14T13:59:29.323Z,100593.34
2023-05-14T14:01:57.218Z,100588.47
2023-05-14T14:04:28.912Z,100594.72
2023-05-14T14:06:58.121Z,100592.91
2023-05-14T14:09:26.265Z,100568.72
2023-05-14T14:11:54.025Z,100566.34
2023-05-14T14:14:21.951Z,100580.81
2023-05-14T14:16:49.599Z,100573.28
2023-05-14T14:19:18.505Z,100574.22
2023-05-14T14:21:46.378Z,100569.03
2023-05-14T14:24:15.473Z,100556.47
2023-05-14T14:26:43.680Z,100567.84
2023-05-14T14:29:11.384Z,100565.72
2023-05-14T14:31:39.097Z,100542.72
2023-05-14T14:34:06.789Z,100553.44
2023-05-14T14:36:34.659Z,100561.94
2023-05-14T14:39:02.544Z,100537.84
2023-05-14T14:41:31.659Z,100552.59
2023-05-14T14:43:59.312Z,100554.34
2023-05-14T14:46:27.608Z,100546.00
2023-05-14T14:48:55.510Z,100561.06
2023-05-14T14:51:23.328Z,100547.00
2023-05-14T14:53:51.178Z,100552.53
2023-05-14T14:56:18.870Z,100541.47
2023-05-14T14:58:47.981Z,100549.56
2023-05-14T15:01:15.907Z,100551.56
2023-05-14T15:03:45.640Z,100544.38
2023-05-14T15:06:13.677Z,100526.38
2023-05-14T15:08:41.802Z,100543.44
2023-05-14T15:11:09.885Z,100539.88
2023-05-14T15:13:37.557Z,100552.53
2023-05-14T15:16:07.163Z,100529.13
2023-05-14T15:18:34.905Z,100538.13
2023-05-14T15:21:02.632Z,100544.88
2023-05-14T15:23:30.379Z,100519.97
2023-05-14T15:25:58.150Z,100516.78
2023-05-14T15:28:25.858Z,100535.41
2023-05-14T15:30:54.447Z,100514.81
2023-05-14T15:33:23.723Z,100514.53
2023-05-14T15:35:51.512Z,100541.50
2023-05-14T15:38:19.530Z,100501.88
2023-05-14T15:40:47.234Z,100548.53
2023-05-14T15:43:14.961Z,100542.50
2023-05-14T15:45:43.890Z,100530.31
2023-05-14T15:48:11.799Z,100534.53
2023-05-14T15:50:41.897Z,100516.44
2023-05-14T15:53:09.865Z,100532.78
2023-05-14T15:55:37.547Z,100509.88
2023-05-14T15:58:05.445Z,100521.00
2023-05-14T16:00:33.289Z,100513.41
2023-05-14T16:03:01.040Z,100527.88
2023-05-14T16:05:28.945Z,100522.94
2023-05-14T16:07:58.107Z,100523.19
2023-05-14T16:10:26.106Z,100526.94
2023-05-14T16:12:54.015Z,100517.44
2023-05-14T16:15:21.974Z,100515.41
2023-05-14T16:17:49.831Z,100515.09
2023-05-14T16:20:17.768Z,100521.09
2023-05-14T16:22:45.877Z,100521.81
2023-05-14T16:25:15.146Z,100490.81
2023-05-14T16:27:43.129Z,100523.75
2023-05-14T16:30:11.603Z,100515.91
2023-05-14T16:32:40.452Z,100523.78
2023-05-14T16:35:08.729Z,100515.28
2023-05-14T16:37:36.567Z,100535.13
2023-05-14T16:40:05.211Z,100529.81
2023-05-14T16:42:34.265Z,100532.22
2023-05-14T16:45:01.959Z,100537.47
2023-05-14T16:47:29.746Z,100521.41
2023-05-14T16:49:57.639Z,100518.19
2023-05-14T16:52:41.432Z,100513.09
2023-05-14T16:55:10.547Z,100519.28
2023-05-14T16:57:39.683Z,100519.63
2023-05-14T17:00:09.556Z,100499.34
2023-05-14T17:02:37.342Z,100506.47
2023-05-14T17:05:05.711Z,100523.00
2023-05-14T17:07:33.428Z,100517.59
2023-05-14T17:10:01.243Z,100498.59
2023-05-14T17:12:29.142Z,100502.75
2023-05-14T17:14:58.190Z,100505.69
2023-05-14T17:17:25.925Z,100499.31
2023-05-14T17:19:54.150Z,100509.44
2023-05-14T17:22:21.833Z,100508.75
2023-05-14T17:24:49.547Z,100513.94
2023-05-14T17:27:17.196Z,100505.41
2023-05-14T17:29:44.915Z,100497.47
2023-05-14T17:32:14.120Z,100510.06
2023-05-14T17:34:41.849Z,100517.91
2023-05-14T17:37:09.580Z,100507.41
2023-05-14T17:39:37.358Z,100496.16
2023-05-14T17:42:06.121Z,100522.00
2023-05-14T17:44:33.802Z,100506.00
2023-05-14T17:47:03.077Z,100524.44
2023-05-14T17:49:32.274Z,100518.09
2023-05-14T17:52:00.398Z,100513.16
2023-05-14T17:54:28.152Z,100514.66
2023-05-14T17:56:56.175Z,100529.06
2023-05-14T17:59:24.362Z,100507.38
2023-05-14T18:01:52.371Z,100522.72
2023-05-14T18:04:20.402Z,100525.91
2023-05-14T18:06:49.563Z,100532.47
2023-05-14T18:09:17.355Z,100523.88
2023-05-14T18:14:45.422Z,100518.91
2023-05-14T18:17:13.653Z,100516.44
2023-05-14T18:19:41.738Z,100526.41
2023-05-14T18:22:10.810Z,100516.72
2023-05-14T18:24:38.779Z,100524.03
2023-05-14T18:27:06.905Z,100522.56
2023-05-14T18:29:34.609Z,100513.28
2023-05-14T18:32:02.487Z,100512.84
2023-05-14T18:34:30.251Z,100524.03
2023-05-14T18:36:58.598Z,100517.69
2023-05-14T18:39:28.177Z,100497.00
2023-05-14T18:41:56.737Z,100525.88
2023-05-14T18:44:24.669Z,100528.69
2023-05-14T18:46:52.453Z,100515.47
2023-05-14T18:49:20.466Z,100510.81
2023-05-14T18:51:48.282Z,100514.22
2023-05-14T18:54:15.936Z,100507.38
2023-05-14T18:56:47.488Z,100528.41
2023-05-14T18:59:15.601Z,100516.44
2023-05-14T19:01:43.438Z,100510.75
2023-05-14T19:04:11.459Z,100512.78
2023-05-14T19:06:40.277Z,100506.09
2023-05-14T19:09:08.065Z,100503.88
2023-05-14T19:11:35.895Z,100507.81
2023-05-14T19:14:04.975Z,100528.81
2023-05-14T19:16:32.800Z,100527.03
2023-05-14T19:19:01.037Z,100528.31
2023-05-14T19:21:28.789Z,100522.44
2023-05-14T19:23:56.532Z,100508.56
2023-05-14T19:26:24.237Z,100525.28
2023-05-14T19:28:52.659Z,100529.84
2023-05-14T19:31:21.761Z,100522.75
2023-05-14T19:33:49.769Z,100526.66
2023-05-14T19:36:17.482Z,100520.25
2023-05-14T19:38:45.147Z,100524.94
2023-05-14T19:41:13.144Z,100530.56
2023-05-14T19:43:40.910Z,100523.38
2023-05-14T19:46:08.743Z,100524.31
2023-05-14T19:48:38.805Z,100533.66
2023-05-14T19:51:06.503Z,100531.78
2023-05-14T19:53:34.325Z,100527.41
2023-05-14T19:56:03.510Z,100523.06
2023-05-14T19:58:31.207Z,100541.69
2023-05-14T20:01:00.946Z,100545.13
2023-05-14T20:03:29.769Z,100535.94
2023-05-14T20:05:59.156Z,100517.31
2023-05-14T20:08:28.998Z,100513.03
2023-05-14T20:10:56.719Z,100522.19
2023-05-14T20:13:25.236Z,100513.69
2023-05-14T20:15:55.054Z,100507.03
2023-05-14T20:18:22.951Z,100534.84
2023-05-14T20:20:50.624Z,100532.16
2023-05-14T20:23:20.707Z,100534.94
2023-05-14T20:25:48.702Z,100523.59
2023-05-14T20:28:16.423Z,100536.66
2023-05-14T20:30:44.126Z,100528.56
2023-05-14T20:33:13.395Z,100522.59
2023-05-14T20:35:43.796Z,100510.50
2023-05-14T20:38:12.755Z,100503.16
2023-05-14T20:40:42.232Z,100509.22
2023-05-14T20:43:10.054Z,100514.25
2023-05-14T20:45:37.738Z,100514.78
2023-05-14T20:48:09.846Z,100496.56
2023-05-14T20:50:37.707Z,100509.16
2023-05-14T20:53:05.490Z,100506.94
2023-05-14T20:55:33.182Z,100513.41
2023-05-14T20:58:02.512Z,100511.56
2023-05-14T21:00:30.371Z,100501.69
2023-05-14T21:02:59.547Z,100493.41
2023-05-14T21:05:27.737Z,100499.28
2023-05-14T21:07:55.690Z,100517.19
2023-05-14T21:10:23.891Z,100517.97
2023-05-14T21:12:52.365Z,100502.91
2023-05-14T21:15:21.643Z,100492.78
2023-05-14T21:17:49.452Z,100502.59
2023-05-14T21:20:17.186Z,100504.31
2023-05-14T21:22:45.214Z,100515.25
2023-05-14T21:25:13.179Z,100504.19
2023-05-14T21:27:40.867Z,100488.34
2023-05-14T21:30:09.715Z,100486.00
2023-05-14T21:32:38.925Z,100477.28
2023-05-14T21:35:07.535Z,100488.03
2023-05-14T21:37:35.219Z,100484.59
2023-05-14T21:40:02.961Z,100476.63
2023-05-14T21:42:30.885Z,100481.81
2023-05-14T21:44:58.585Z,100473.84
2023-05-14T21:47:26.379Z,100463.56
2023-05-14T21:49:55.667Z,100483.56
2023-05-14T21:52:23.359Z,100487.50
2023-05-14T21:54:51.019Z,100469.97
2023-05-14T21:57:18.764Z,100459.78
2023-05-14T21:59:46.589Z,100464.78
2023-05-14T22:02:14.348Z,100475.03
2023-05-14T22:04:42.141Z,100470.13
2023-05-14T22:07:11.345Z,100455.56
2023-05-14T22:09:39.190Z,100462.13
2023-05-14T22:12:08.616Z,100454.94
2023-05-14T22:14:36.455Z,100459.00
2023-05-14T22:17:04.725Z,100467.66
2023-05-14T22:19:33.040Z,100453.47
2023-05-14T22:22:00.838Z,100455.50
2023-05-14T22:24:30.009Z,100455.09
2023-05-14T22:26:57.729Z,100453.31
2023-05-14T22:29:25.432Z,100447.00
2023-05-14T22:31:53.393Z,100457.16
2023-05-14T22:34:21.139Z,100452.78
2023-05-14T22:36:48.907Z,100449.88
2023-05-14T22:39:16.584Z,100441.44
2023-05-14T22:41:45.896Z,100440.53
2023-05-14T22:44:13.587Z,100441.53
2023-05-14T22:46:41.370Z,100451.41
2023-05-14T22:49:09.133Z,100435.09
2023-05-14T22:51:36.792Z,100442.88
2023-05-14T22:54:04.931Z,100434.56
2023-05-14T22:56:32.768Z,100432.75
2023-05-14T22:59:02.029Z,100429.88
2023-05-14T23:01:30.446Z,100433.03
2023-05-14T23:03:58.545Z,100438.59
2023-05-14T23:06:26.286Z,100425.44
2023-05-14T23:08:54.041Z,100444.31
2023-05-14T23:11:22.748Z,100449.31
2023-05-14T23:13:50.574Z,100427.41
2023-05-14T23:16:20.648Z,100428.09
2023-05-14T23:18:48.721Z,100437.84
2023-05-14T23:21:16.486Z,100428.75
2023-05-14T23:23:45.376Z,100428.88
2023-05-14T23:26:13.146Z,100440.00
2023-05-14T23:28:41.142Z,100434.91
2023-05-14T23:31:08.846Z,100421.97
2023-05-14T23:33:39.838Z,100416.50
2023-05-14T23:36:08.651Z,100422.38
2023-05-14T23:38:59.489Z,100413.91
2023-05-14T23:41:27.392Z,100409.00
2023-05-14T23:43:55.368Z,100430.84
2023-05-14T23:46:23.261Z,100430.03
2023-05-14T23:48:52.420Z,100411.69
2023-05-14T23:51:20.130Z,100404.22
2023-05-14T23:53:48.206Z,100421.59
2023-05-14T23:56:15.872Z,100397.94
2023-05-14T23:58:43.984Z,100399.88
